Steamboat Springs, Colorado
Current Conditions -  °F | °C
As of 4:15 PM on Wednesday 17 Dec 2014 (Local Time) from KSBS Reporting Station
Overcast Overcast  
Wind Chill: 30°   Ceiling: 4700
Heat Index: 30°   Visibility: 5mi
Dew Point: 28°   Wind: 0mph
Humidity: 94%   Direction: NA
Pressure: 29.95"   Gusts: NA
Location:  40.49°N, 106.83°W
Report Text: KSBS 172315Z AUTO 00000KT 5SM SCT026 BKN047 OVC080 M01/M02 A2995 RMK AO1 T10131021
Loading
Personal Weather Stations






























Interactive Weather Map New forecast layout! Learn more

10-Day Weather Forecast

Advertisements
Track Severe Weather on mobile